createdAt,value
2018-11-05T00:01:14.221Z,40.28
2018-11-05T00:04:09.751Z,43.87
2018-11-05T00:07:06.073Z,48.45
2018-11-05T00:10:00.336Z,47.57
2018-11-05T00:12:54.523Z,41.23
2018-11-05T00:15:48.208Z,44.17
2018-11-05T00:18:42.264Z,41.13
2018-11-05T00:21:36.791Z,41.23
2018-11-05T00:24:30.767Z,43.20
2018-11-05T00:27:24.462Z,37.80
2018-11-05T00:30:18.512Z,48.20
2018-11-05T00:33:12.289Z,54.07
2018-11-05T00:36:06.263Z,47.15
2018-11-05T00:39:01.267Z,61.60
2018-11-05T00:41:59.149Z,51.17
2018-11-05T00:44:56.201Z,59.98
2018-11-05T00:47:50.216Z,45.85
2018-11-05T00:50:46.398Z,59.67
2018-11-05T00:53:42.942Z,67.85
2018-11-05T00:56:37.133Z,50.30
2018-11-05T00:59:31.009Z,56.92
2018-11-05T01:02:25.594Z,64.40
2018-11-05T01:05:20.348Z,64.07
2018-11-05T01:08:14.267Z,65.83
2018-11-05T01:11:08.484Z,63.60
2018-11-05T01:14:04.076Z,62.00
2018-11-05T01:16:58.261Z,56.13
2018-11-05T01:19:56.229Z,54.60
2018-11-05T01:22:50.518Z,58.17
2018-11-05T01:25:46.844Z,58.78
2018-11-05T01:28:41.244Z,63.07
2018-11-05T01:31:35.121Z,89.27
2018-11-05T01:34:29.511Z,72.62
2018-11-05T01:37:24.704Z,67.15
2018-11-05T01:40:18.898Z,65.20
2018-11-05T01:43:15.742Z,79.70
2018-11-05T01:46:10.027Z,67.45
2018-11-05T01:49:04.207Z,75.07
2018-11-05T01:52:01.362Z,75.40
2018-11-05T01:54:55.033Z,58.52
2018-11-05T01:57:48.911Z,61.07
2018-11-05T02:00:42.784Z,64.60
2018-11-05T02:03:36.968Z,58.57
2018-11-05T02:06:33.927Z,57.00
2018-11-05T02:09:27.792Z,53.05
2018-11-05T02:12:21.668Z,53.70
2018-11-05T02:15:15.748Z,52.40
2018-11-05T02:18:10.528Z,54.00
2018-11-05T02:21:07.298Z,51.03
2018-11-05T02:24:01.304Z,56.42
2018-11-05T02:26:56.072Z,52.80
2018-11-05T02:29:50.349Z,51.97
2018-11-05T02:32:44.027Z,51.83
2018-11-05T02:35:38.213Z,52.62
2018-11-05T02:38:36.372Z,51.60
2018-11-05T02:41:26.739Z,52.73
2018-11-05T02:44:22.100Z,55.08
2018-11-05T02:47:16.271Z,58.27
2018-11-05T02:50:11.273Z,71.03
2018-11-05T02:53:05.563Z,53.63
2018-11-05T02:55:59.950Z,52.03
2018-11-05T02:58:53.606Z,59.30
2018-11-05T03:01:47.898Z,59.10
2018-11-05T03:04:46.706Z,55.75
2018-11-05T03:07:40.577Z,57.60
2018-11-05T03:10:35.275Z,55.28
2018-11-05T03:13:28.945Z,57.83
2018-11-05T03:16:23.051Z,54.03
2018-11-05T03:19:17.186Z,62.43
2018-11-05T03:22:11.410Z,57.05
2018-11-05T03:25:05.680Z,62.00
2018-11-05T03:28:00.749Z,74.20
2018-11-05T03:30:55.179Z,68.03
2018-11-05T03:33:50.206Z,64.50
2018-11-05T03:36:44.358Z,61.90
2018-11-05T03:39:38.762Z,60.75
2018-11-05T03:42:33.957Z,58.43
2018-11-05T03:45:27.880Z,63.73
2018-11-05T03:48:22.172Z,74.10
2018-11-05T03:51:16.293Z,63.08
2018-11-05T03:54:10.963Z,63.50
2018-11-05T03:57:08.142Z,65.22
2018-11-05T04:00:02.450Z,66.85
2018-11-05T04:02:56.531Z,66.53
2018-11-05T04:05:50.410Z,63.27
2018-11-05T04:08:43.860Z,66.00
2018-11-05T04:11:38.064Z,64.03
2018-11-05T04:14:32.115Z,60.78
2018-11-05T04:17:26.221Z,58.90
2018-11-05T04:20:20.500Z,57.13
2018-11-05T04:23:17.534Z,57.67
2018-11-05T04:26:27.502Z,56.90
2018-11-05T04:29:18.591Z,57.30
2018-11-05T04:32:16.179Z,56.43
2018-11-05T04:35:10.276Z,57.60
2018-11-05T04:38:04.120Z,55.88
2018-11-05T04:41:02.607Z,57.70
2018-11-05T04:43:54.638Z,55.80
2018-11-05T04:46:48.834Z,55.10
2018-11-05T04:49:48.663Z,56.75
2018-11-05T04:52:50.003Z,52.70
2018-11-05T04:56:10.115Z,55.63
2018-11-05T04:59:40.734Z,49.50
2018-11-05T05:02:29.576Z,55.23
2018-11-05T05:05:28.681Z,49.20
2018-11-05T05:08:33.407Z,44.83
2018-11-05T05:11:37.016Z,43.87
2018-11-05T05:14:40.483Z,40.83
2018-11-05T05:18:14.267Z,38.45
2018-11-05T05:21:05.339Z,36.13
2018-11-05T05:24:02.337Z,39.20
2018-11-05T05:26:57.762Z,33.20
2018-11-05T05:30:00.840Z,33.43
2018-11-05T05:32:52.684Z,29.48
2018-11-05T05:35:47.454Z,28.00
2018-11-05T05:38:47.238Z,25.57
2018-11-05T05:42:10.940Z,26.17
2018-11-05T05:45:18.184Z,23.92
2018-11-05T05:48:33.934Z,25.08
2018-11-05T05:51:43.690Z,24.02
2018-11-05T05:54:43.178Z,22.22
2018-11-05T05:57:58.540Z,23.40
2018-11-05T06:01:00.690Z,23.23
2018-11-05T06:04:30.388Z,23.30
2018-11-05T06:07:31.667Z,23.95
2018-11-05T06:10:35.705Z,24.27
2018-11-05T06:13:40.607Z,25.08
2018-11-05T06:16:45.047Z,23.73
2018-11-05T06:19:46.835Z,23.85
2018-11-05T06:22:49.092Z,22.48
2018-11-05T06:25:51.764Z,22.75
2018-11-05T06:28:51.456Z,22.42
2018-11-05T06:31:53.879Z,23.18
2018-11-05T06:34:55.038Z,22.77
2018-11-05T06:37:52.195Z,22.15
2018-11-05T06:40:53.395Z,23.85
2018-11-05T06:43:49.875Z,23.47
2018-11-05T06:46:47.615Z,23.15
2018-11-05T06:49:55.436Z,23.55
2018-11-05T06:52:53.391Z,23.42
2018-11-05T06:55:51.547Z,24.65
2018-11-05T06:58:50.008Z,24.40
2018-11-05T07:01:54.037Z,24.20
2018-11-05T07:04:55.666Z,25.32
2018-11-05T07:11:19.667Z,24.92
2018-11-05T07:14:17.376Z,23.47
2018-11-05T07:17:43.725Z,25.20
2018-11-05T07:20:53.291Z,25.27
2018-11-05T07:23:54.582Z,24.57
2018-11-05T07:26:54.538Z,25.10
2018-11-05T07:29:56.947Z,26.05
2018-11-05T07:32:58.544Z,24.67
2018-11-05T07:35:59.640Z,24.87
2018-11-05T07:39:16.529Z,24.43
2018-11-05T07:42:21.884Z,25.00
2018-11-05T07:45:25.670Z,25.23
2018-11-05T07:48:28.634Z,26.27
2018-11-05T07:51:56.537Z,25.23
2018-11-05T07:55:00.160Z,25.82
2018-11-05T07:58:05.468Z,25.60
2018-11-05T08:01:03.208Z,26.70
2018-11-05T08:04:06.520Z,27.25
2018-11-05T08:07:08.729Z,28.30
2018-11-05T08:10:06.431Z,27.07
2018-11-05T08:13:04.742Z,25.97
2018-11-05T08:16:12.474Z,27.13
2018-11-05T08:19:07.880Z,28.70
2018-11-05T08:22:09.933Z,26.57
2018-11-05T08:25:11.721Z,26.85
2018-11-05T08:28:13.717Z,27.05
2018-11-05T08:31:16.101Z,27.70
2018-11-05T08:34:17.195Z,27.58
2018-11-05T08:37:25.889Z,27.55
2018-11-05T08:40:32.775Z,27.90
2018-11-05T08:43:32.107Z,26.77
2018-11-05T08:46:36.379Z,28.73
2018-11-05T08:49:36.299Z,27.98
2018-11-05T08:52:36.817Z,28.30
2018-11-05T08:55:39.190Z,28.90
2018-11-05T08:58:38.236Z,28.75
2018-11-05T09:01:39.103Z,27.67
2018-11-05T09:04:42.239Z,28.50
2018-11-05T09:07:46.130Z,28.62
2018-11-05T09:10:41.921Z,28.77
2018-11-05T09:13:41.501Z,27.95
2018-11-05T09:16:40.952Z,27.93
2018-11-05T09:19:43.791Z,29.37
2018-11-05T09:22:46.027Z,28.87
2018-11-05T09:25:47.148Z,29.45
2018-11-05T09:28:52.205Z,27.75
2018-11-05T09:31:50.711Z,29.45
2018-11-05T09:34:53.753Z,28.15
2018-11-05T09:37:53.878Z,28.95
2018-11-05T09:41:02.652Z,28.73
2018-11-05T09:44:04.878Z,27.35
2018-11-05T09:47:09.144Z,29.77
2018-11-05T09:50:06.180Z,28.47
2018-11-05T09:53:04.786Z,28.83
2018-11-05T09:56:02.883Z,28.38
2018-11-05T09:59:01.808Z,27.90
2018-11-05T10:02:04.863Z,29.25
2018-11-05T10:05:01.366Z,28.62
2018-11-05T10:08:04.213Z,29.87
2018-11-05T10:10:57.296Z,29.25
2018-11-05T10:13:52.648Z,29.27
2018-11-05T10:16:49.730Z,29.45
2018-11-05T10:19:46.647Z,28.75
2018-11-05T10:22:57.702Z,28.98
2018-11-05T10:25:53.857Z,28.67
2018-11-05T10:28:51.062Z,29.20
2018-11-05T10:31:51.316Z,28.60
2018-11-05T10:34:48.350Z,29.57
2018-11-05T10:37:38.716Z,29.48
2018-11-05T10:40:38.030Z,30.25
2018-11-05T10:43:31.258Z,28.32
2018-11-05T10:46:24.645Z,28.57
2018-11-05T10:49:18.682Z,30.08
2018-11-05T10:52:13.641Z,29.77
2018-11-05T10:55:07.231Z,30.25
2018-11-05T10:58:02.405Z,30.43
2018-11-05T11:01:12.458Z,29.67
2018-11-05T11:10:34.872Z,30.27
2018-11-05T11:13:28.737Z,29.70
2018-11-05T11:16:32.698Z,30.23
2018-11-05T11:19:26.460Z,29.37
2018-11-05T11:22:22.289Z,29.60
2018-11-05T11:25:15.737Z,29.05
2018-11-05T11:28:09.584Z,28.57
2018-11-05T11:31:06.362Z,30.23
2018-11-05T11:34:00.417Z,29.67
2018-11-05T11:36:54.053Z,29.50
2018-11-05T11:39:47.551Z,29.35
2018-11-05T11:42:44.975Z,29.32
2018-11-05T11:45:38.918Z,29.03
2018-11-05T11:48:32.455Z,31.00
2018-11-05T11:51:26.169Z,29.07
2018-11-05T11:54:22.345Z,28.30
2018-11-05T11:57:19.377Z,29.40
2018-11-05T12:00:17.920Z,29.87
2018-11-05T12:03:13.735Z,29.00
2018-11-05T12:06:14.295Z,31.07
2018-11-05T12:09:13.914Z,30.27
2018-11-05T12:12:11.467Z,29.05
2018-11-05T12:15:08.853Z,29.67
2018-11-05T12:18:05.544Z,29.42
2018-11-05T12:21:01.994Z,30.23
2018-11-05T12:23:57.262Z,29.75
2018-11-05T12:26:59.325Z,29.23
2018-11-05T12:29:55.879Z,30.20
2018-11-05T12:32:52.557Z,30.97
2018-11-05T12:35:49.242Z,36.25
2018-11-05T12:38:44.199Z,30.27
2018-11-05T12:41:49.429Z,34.00
2018-11-05T12:44:46.545Z,31.75
2018-11-05T12:47:42.385Z,30.82
2018-11-05T12:50:39.144Z,32.30
2018-11-05T12:53:37.794Z,35.83
2018-11-05T12:56:33.460Z,32.28
2018-11-05T12:59:28.847Z,30.57
2018-11-05T13:02:27.985Z,33.90
2018-11-05T13:05:22.515Z,35.23
2018-11-05T13:08:22.687Z,33.45
2018-11-05T13:11:18.001Z,35.80
2018-11-05T13:14:14.058Z,37.90
2018-11-05T13:17:10.682Z,31.15
2018-11-05T13:20:06.261Z,31.02
2018-11-05T13:23:02.014Z,29.70
2018-11-05T13:25:58.632Z,30.27
2018-11-05T13:28:56.044Z,31.40
2018-11-05T13:31:52.193Z,36.55
2018-11-05T13:34:52.922Z,31.62
2018-11-05T13:37:46.036Z,31.53
2018-11-05T13:40:41.786Z,33.15
2018-11-05T13:43:36.858Z,31.35
2018-11-05T13:46:32.863Z,31.77
2018-11-05T13:49:28.341Z,32.50
2018-11-05T13:52:23.381Z,37.90
2018-11-05T13:55:19.534Z,34.27
2018-11-05T13:58:15.007Z,32.50
2018-11-05T14:01:10.491Z,32.60
2018-11-05T14:04:08.479Z,31.68
2018-11-05T14:07:04.031Z,34.03
2018-11-05T14:09:58.800Z,34.80
2018-11-05T14:12:53.736Z,34.50
2018-11-05T14:15:48.516Z,33.03
2018-11-05T14:18:43.813Z,41.77
2018-11-05T14:21:39.407Z,32.40
2018-11-05T14:24:35.376Z,51.00
2018-11-05T14:27:30.922Z,35.28
2018-11-05T14:30:26.518Z,33.83
2018-11-05T14:33:22.296Z,31.68
2018-11-05T14:36:17.921Z,34.03
2018-11-05T14:39:18.509Z,33.48
2018-11-05T14:42:13.756Z,33.93
2018-11-05T14:45:09.266Z,36.53
2018-11-05T14:48:04.805Z,44.70
2018-11-05T14:51:00.148Z,41.15
2018-11-05T14:53:54.519Z,36.30
2018-11-05T14:56:50.038Z,38.83
2018-11-05T14:59:45.615Z,38.98
2018-11-05T15:02:41.641Z,36.50
2018-11-05T15:05:36.681Z,35.50
2018-11-05T15:08:31.818Z,35.28
2018-11-05T15:11:28.229Z,40.43
2018-11-05T15:14:24.195Z,39.57
2018-11-05T15:17:20.486Z,38.40
2018-11-05T15:20:17.598Z,37.77
2018-11-05T15:23:13.117Z,35.40
2018-11-05T15:26:08.734Z,35.63
2018-11-05T15:29:04.072Z,40.35
2018-11-05T15:31:59.728Z,40.00
2018-11-05T15:34:56.063Z,37.80
2018-11-05T15:37:51.718Z,38.42
2018-11-05T15:40:46.596Z,40.55
2018-11-05T15:43:42.193Z,41.47
2018-11-05T15:46:37.911Z,42.98
2018-11-05T15:49:33.829Z,40.40
2018-11-05T15:52:29.428Z,39.90
2018-11-05T15:55:24.669Z,41.27
2018-11-05T15:58:22.969Z,40.67
2018-11-05T16:01:21.437Z,40.85
2018-11-05T16:04:17.512Z,47.65
2018-11-05T16:07:13.008Z,48.20
2018-11-05T16:10:08.459Z,51.37
2018-11-05T16:13:04.125Z,46.05
2018-11-05T16:16:00.139Z,46.80
2018-11-05T16:18:55.648Z,46.88
2018-11-05T16:21:51.679Z,48.58
2018-11-05T16:24:46.604Z,45.63
2018-11-05T16:27:42.371Z,46.88
2018-11-05T16:30:37.568Z,46.60
2018-11-05T16:33:33.126Z,47.65
2018-11-05T16:36:28.605Z,46.00
2018-11-05T16:39:23.821Z,45.08
2018-11-05T16:42:19.024Z,53.85
2018-11-05T16:45:14.464Z,48.38
2018-11-05T16:48:09.984Z,49.13
2018-11-05T16:51:05.185Z,48.63
2018-11-05T16:54:04.020Z,46.42
2018-11-05T16:57:02.176Z,47.50
2018-11-05T16:59:57.571Z,47.43
2018-11-05T17:02:54.065Z,47.53
2018-11-05T17:05:49.909Z,49.27
2018-11-05T17:08:50.232Z,47.20
2018-11-05T17:11:45.978Z,46.15
2018-11-05T17:14:42.692Z,46.35
2018-11-05T17:17:38.820Z,46.70
2018-11-05T17:20:43.204Z,46.75
2018-11-05T17:23:31.186Z,43.30
2018-11-05T17:26:28.776Z,45.63
2018-11-05T17:29:24.382Z,43.75
2018-11-05T17:32:20.829Z,43.67
2018-11-05T17:35:17.708Z,41.85
2018-11-05T17:38:15.969Z,41.68
2018-11-05T17:41:15.161Z,42.97
2018-11-05T17:44:11.712Z,41.00
2018-11-05T17:47:07.697Z,42.55
2018-11-05T17:50:03.128Z,43.68
2018-11-05T17:52:58.932Z,42.08
2018-11-05T17:55:54.300Z,42.38
2018-11-05T17:58:50.314Z,43.42
2018-11-05T18:01:46.032Z,42.88
2018-11-05T18:04:41.941Z,43.95
2018-11-05T18:07:37.346Z,42.23
2018-11-05T18:10:33.493Z,42.05
2018-11-05T18:13:29.156Z,46.00
2018-11-05T18:16:24.671Z,44.48
2018-11-05T18:19:20.538Z,43.07
2018-11-05T18:22:17.174Z,43.37
2018-11-05T18:25:15.211Z,43.58
2018-11-05T18:28:11.087Z,44.50
2018-11-05T18:31:09.647Z,42.43
2018-11-05T18:34:05.256Z,42.48
2018-11-05T18:37:00.900Z,43.70
2018-11-05T18:39:56.979Z,43.17
2018-11-05T18:42:52.124Z,42.08
2018-11-05T18:45:47.482Z,40.28
2018-11-05T18:48:42.149Z,42.67
2018-11-05T18:51:37.359Z,44.70
2018-11-05T18:54:32.708Z,42.17
2018-11-05T18:57:27.884Z,42.17
2018-11-05T19:00:25.880Z,42.83
2018-11-05T19:03:21.392Z,40.33
2018-11-05T19:06:17.023Z,41.13
2018-11-05T19:09:12.962Z,41.80
2018-11-05T19:12:08.272Z,38.90
2018-11-05T19:15:03.428Z,40.00
2018-11-05T19:17:58.201Z,38.42
2018-11-05T19:20:53.929Z,40.43
2018-11-05T19:23:52.613Z,38.67
2018-11-05T19:26:50.075Z,40.20
2018-11-05T19:29:45.277Z,39.87
2018-11-05T19:32:40.703Z,38.42
2018-11-05T19:35:35.644Z,40.73
2018-11-05T19:38:31.284Z,37.93
2018-11-05T19:41:28.942Z,39.42
2018-11-05T19:44:21.198Z,39.65
2018-11-05T19:47:16.623Z,40.47
2018-11-05T19:50:14.608Z,40.75
2018-11-05T19:53:10.226Z,41.48
2018-11-05T19:56:05.655Z,37.83
2018-11-05T19:59:00.878Z,38.88
2018-11-05T20:01:56.395Z,38.50
2018-11-05T20:04:51.466Z,38.17
2018-11-05T20:07:47.027Z,38.30
2018-11-05T20:10:45.311Z,36.35
2018-11-05T20:13:40.538Z,38.48
2018-11-05T20:16:36.830Z,38.63
2018-11-05T20:19:34.706Z,39.03
2018-11-05T20:22:29.632Z,37.75
2018-11-05T20:25:25.458Z,39.30
2018-11-05T20:28:21.336Z,37.50
2018-11-05T20:31:16.515Z,36.60
2018-11-05T20:34:12.333Z,37.70
2018-11-05T20:37:07.160Z,37.33
2018-11-05T20:40:03.185Z,37.23
2018-11-05T20:42:58.224Z,37.53
2018-11-05T20:45:53.540Z,37.53
2018-11-05T20:48:49.421Z,37.83
2018-11-05T20:51:45.042Z,39.10
2018-11-05T20:54:39.850Z,37.75
2018-11-05T20:57:34.316Z,38.15
2018-11-05T21:00:27.804Z,38.78
2018-11-05T21:03:23.368Z,37.25
2018-11-05T21:06:18.796Z,38.60
2018-11-05T21:09:15.716Z,38.75
2018-11-05T21:12:10.694Z,37.65
2018-11-05T21:15:06.243Z,37.83
2018-11-05T21:18:01.622Z,36.87
2018-11-05T21:20:57.821Z,38.38
2018-11-05T21:23:53.462Z,37.03
2018-11-05T21:26:49.354Z,37.73
2018-11-05T21:29:44.329Z,36.13
2018-11-05T21:32:42.267Z,37.63
2018-11-05T21:35:37.423Z,37.87
2018-11-05T21:38:32.587Z,38.42
2018-11-05T21:41:27.297Z,37.23
2018-11-05T21:44:22.471Z,37.57
2018-11-05T21:47:17.842Z,36.60
2018-11-05T21:50:14.812Z,37.70
2018-11-05T21:53:09.406Z,36.35
2018-11-05T21:56:02.924Z,36.93
2018-11-05T21:58:57.584Z,37.00
2018-11-05T22:01:53.614Z,37.37
2018-11-05T22:04:48.762Z,36.23
2018-11-05T22:07:44.733Z,37.63
2018-11-05T22:10:40.373Z,37.10
2018-11-05T22:13:36.036Z,37.10
2018-11-05T22:16:32.287Z,37.40
2018-11-05T22:19:27.644Z,38.37
2018-11-05T22:22:23.636Z,37.03
2018-11-05T22:25:19.414Z,37.07
2018-11-05T22:28:15.396Z,37.30
2018-11-05T22:31:11.071Z,40.50
2018-11-05T22:34:07.131Z,38.27
2018-11-05T22:37:02.966Z,37.13
2018-11-05T22:39:58.744Z,38.17
2018-11-05T22:42:54.440Z,38.40
2018-11-05T22:45:50.143Z,37.67
2018-11-05T22:48:45.602Z,36.53
2018-11-05T22:51:40.807Z,36.67
2018-11-05T22:54:36.317Z,37.93
2018-11-05T22:57:32.032Z,35.40
2018-11-05T23:00:43.888Z,38.27
2018-11-05T23:03:39.625Z,36.77
2018-11-05T23:06:36.914Z,36.87
2018-11-05T23:09:32.621Z,37.67
2018-11-05T23:12:27.853Z,34.98
2018-11-05T23:15:23.839Z,35.95
2018-11-05T23:18:19.541Z,37.20
2018-11-05T23:21:14.914Z,36.53
2018-11-05T23:24:11.209Z,38.43
2018-11-05T23:27:06.179Z,36.15
2018-11-05T23:30:00.827Z,36.63
2018-11-05T23:32:55.307Z,37.20
2018-11-05T23:35:49.069Z,36.20
2018-11-05T23:38:42.746Z,34.87
2018-11-05T23:41:36.431Z,36.47
2018-11-05T23:44:29.984Z,36.97
2018-11-05T23:47:23.479Z,35.27
2018-11-05T23:50:17.349Z,34.95
2018-11-05T23:53:11.775Z,36.80
2018-11-05T23:56:05.734Z,36.50
2018-11-05T23:59:02.593Z,35.08
